FAOR/JNB METAR and TAF weather

Enter ICAO airport designator
Station Type Date Time Source
FAOR METAR 2019/12/11 15:00 UTC NOAA

FAOR 111500Z 22011KT CAVOK 23/10 Q1017 NOSIG


Station Type Date Time Source
FAOR Decoded METAR 2019/12/11 15:00 UTC NOAA

Station name not available
Dec 11, 2019 - 10:00 AM EST / 2019.12.11 1500 UTC
Wind: from the SW (220 degrees) at 13 MPH (11 KT):0
Visibility: greater than 7 mile(s):0
Temperature: 73 F (23 C)
Dew Point: 50 F (10 C)
Relative Humidity: 43%
Pressure (altimeter): 30.03 in. Hg (1017 hPa)
ob: FAOR 111500Z 22011KT CAVOK 23/10 Q1017 NOSIG
cycle: 15

Station Type Date Time Source
FAOR TAF 2019/12/11 12:36 UTC NOAA

TAF
AMD FAOR 111135Z 1112/1218 20010KT 9999 SCT035 TX24/1113Z TN12/1203Z PROB30
TEMPO 1112/1113 FEW035TCU PROB30
TEMPO 1113/1118 -TSRA FEW030CB
BECMG 1118/1120 CAVOK
BECMG 1122/1124 13011KT PROB40
TEMPO 1200/1207 5000 BR BKN012

Example: see airport list